Skip to main content

NOAA/GLERL Met Station at Muskegon, MI

Previous 3 Hours (2 minute increments)
See also Previous 5 Days (top of hour)
Jump down to Data
Switch to [English][Metric]
Zoom: Click and drag, Pan: shift-click and drag, Unzoom: double-click, Unzoom All






See also 1-day windrose plot


NOAA/GLERL Met Station at Muskegon, MI

Previous 3 Hours (2 minute increments)
See also Previous 5 Days (top of hour only)
Jump up to Graphs
Switch to [English][Metric]
                  Wind  Wind  Wind   Air   Dew   Rel     Sta   PAR
                   Spd   Gst   Dir  Temp    Pt   Hum    Pres uE/m2/
YYYY-MM-DD   EDT   kts   kts   deg     F     F     %   in Hg   sec
2017-05-27 00:20   1.7   2.1    31  54.9  53.1  93.7   29.24     2
2017-05-27 00:18   1.6   1.7    35  54.9  53.1  93.6   29.24     2
2017-05-27 00:16   1.2   1.4    43  54.9  53.0  93.5   29.23     2
2017-05-27 00:14   1.2   1.6    42  54.9  52.9  93.1   29.24     2
2017-05-27 00:12   1.4   1.7    31  54.9  52.9  93.0   29.24     2
2017-05-27 00:10   1.9   2.1    35  54.9  52.9  93.1   29.24     2
2017-05-27 00:08   1.9   2.3    31  54.9  53.0  93.4   29.24     2
2017-05-27 00:06   1.7   2.5    35  55.0  53.2  93.6   29.24     2
2017-05-27 00:04   1.9   2.5    39  55.0  53.3  93.9   29.23     2
2017-05-27 00:02   1.7   2.3    43  55.2  53.6  94.1   29.23     2
2017-05-27 00:00   1.9   2.1    36  55.2  53.5  93.9   29.23     2
2017-05-26 23:58   2.5   2.7    29  55.2  53.5  93.8   29.24     2
2017-05-26 23:56   3.3   3.9    18  55.2  53.5  93.7   29.24     2
2017-05-26 23:54   4.1   4.9     2  55.2  53.4  93.6   29.24     2
2017-05-26 23:52   4.9   5.1     7  55.4  53.7  93.8   29.24     2
2017-05-26 23:50   4.7   4.9     7  55.4  53.6  93.7   29.24     2
2017-05-26 23:48   4.5   4.9     9  55.4  53.6  93.7   29.24     2
2017-05-26 23:46   5.1   5.8     6  55.6  53.9  93.9   29.24     2
2017-05-26 23:44   4.9   5.6    20  55.8  54.1  93.9   29.24     2
2017-05-26 23:42   3.3   4.1    41  55.8  54.0  93.6   29.23     2
2017-05-26 23:40   4.1   4.3    57  55.9  54.1  93.5   29.23     2
2017-05-26 23:38   3.7   4.1    50  56.1  54.3  93.4   29.23     2
2017-05-26 23:36   4.1   4.7    44  56.3  54.4  93.1   29.23     2
2017-05-26 23:34   4.3   4.7    44  56.5  54.5  93.1   29.23     2
2017-05-26 23:32   4.5   4.9    48  56.7  54.7  93.1   29.23     2
2017-05-26 23:30   3.3   4.1    47  56.7  54.8  93.4   29.23     2
2017-05-26 23:28   3.1   3.7    73  56.7  54.9  93.6   29.23     2
2017-05-26 23:26   2.7   3.5    76  56.7  54.8  93.4   29.23     2
2017-05-26 23:24   3.1   4.9    98  56.5  54.6  93.4   29.23     2
2017-05-26 23:22   5.1   5.6   107  56.5  54.7  93.6   29.23     2
2017-05-26 23:20   5.2   5.6   106  56.3  54.5  93.7   29.23     2
2017-05-26 23:18   4.9   5.2   108  56.1  54.3  93.6   29.23     2
2017-05-26 23:16   4.7   5.1   113  56.1  54.2  93.3   29.23     2
2017-05-26 23:14   4.1   4.5   112  56.1  54.1  92.9   29.23     2
2017-05-26 23:12   3.1   3.9   105  56.1  53.9  92.3   29.23     2
2017-05-26 23:10   1.7   2.3    82  56.3  54.1  92.2   29.23     2
2017-05-26 23:08   1.4   1.6    39  56.5  54.2  91.8   29.24     2
2017-05-26 23:06   1.6   1.9    11  56.5  54.0  91.4   29.24     2
2017-05-26 23:04   1.6   2.1     1  56.5  54.1  91.6   29.24     2
2017-05-26 23:02   2.3   2.7   347  56.7  54.4  92.1   29.24     2
2017-05-26 23:00   2.3   2.7   348  56.7  54.4  91.9   29.24     2
2017-05-26 22:58   2.7   3.7   351  56.7  54.3  91.6   29.24     2
2017-05-26 22:56   1.9   2.7     5  56.7  54.2  91.4   29.24     2
2017-05-26 22:54   0.8   1.7    37  56.5  54.0  91.4   29.24     2
2017-05-26 22:52   0.0   0.0     0  56.5  54.1  91.5   29.23     2
2017-05-26 22:50   0.0   0.8   131  56.7  54.2  91.2   29.23     2
2017-05-26 22:48   0.6   1.4   138  56.7  53.9  90.4   29.23     2
2017-05-26 22:46   1.7   2.7   139  56.7  53.7  89.6   29.23     2
2017-05-26 22:44   2.5   3.5   138  56.8  53.7  89.1   29.23     2
2017-05-26 22:42   3.9   4.7   135  56.7  53.6  89.2   29.22     2
2017-05-26 22:40   5.1   5.8   135  56.7  53.6  89.2   29.22     2
2017-05-26 22:38   5.4   6.2   134  56.5  53.6  89.9   29.22     2
2017-05-26 22:36   5.4   6.0   136  56.5  53.8  90.5   29.22     2
2017-05-26 22:34   5.6   6.0   134  56.5  53.9  91.1   29.23     2
2017-05-26 22:32   5.4   5.8   135  56.3  53.7  90.8   29.23     2
2017-05-26 22:30   5.1   5.6   129  56.3  53.5  90.3   29.23     2
2017-05-26 22:28   4.1   4.5   124  56.3  53.4  89.8   29.23     2
2017-05-26 22:26   3.3   4.1   113  56.5  53.5  89.7   29.23     2
2017-05-26 22:24   3.1   3.3   100  56.3  53.3  89.4   29.23     2
2017-05-26 22:22   2.5   2.9    87  56.5  53.6  90.0   29.23     2
2017-05-26 22:20   2.3   2.5    75  56.5  53.9  90.9   29.23     2
2017-05-26 22:18   2.5   2.7    72  56.5  54.0  91.3   29.23     2
2017-05-26 22:16   2.7   2.7    72  56.5  54.1  91.5   29.23     2
2017-05-26 22:14   2.5   2.7    72  56.7  54.2  91.4   29.23     2
2017-05-26 22:12   2.5   2.9    72  56.7  54.1  91.1   29.23     2
2017-05-26 22:10   2.7   3.1    74  56.7  53.9  90.2   29.23     2
2017-05-26 22:08   2.9   3.5    73  56.7  53.5  88.9   29.23     2
2017-05-26 22:06   3.1   3.5    76  56.7  53.5  88.9   29.23     2
2017-05-26 22:04   2.7   3.3    83  56.5  53.4  89.4   29.22     2
2017-05-26 22:02   3.1   3.3    91  56.5  53.4  89.3   29.22     2
2017-05-26 22:00   3.1   3.5    95  56.5  53.3  89.1   29.22     2
2017-05-26 21:58   3.3   3.5    94  56.5  53.3  88.8   29.22     2
2017-05-26 21:56   3.3   3.7    93  56.7  53.7  89.7   29.22     2
2017-05-26 21:54   2.5   3.3    93  56.7  53.9  90.3   29.22     2
2017-05-26 21:52   2.7   3.3    98  56.7  53.9  90.2   29.22     2
2017-05-26 21:50   2.7   3.3    98  56.5  53.6  89.9   29.22     2
2017-05-26 21:48   2.7   3.7   103  56.5  53.4  89.2   29.22     2
2017-05-26 21:46   1.4   1.9   108  56.5  53.2  88.7   29.22     2
2017-05-26 21:44   1.4   2.1   119  56.5  53.4  89.2   29.22     2
2017-05-26 21:42   1.9   2.9    97  56.5  53.3  89.0   29.22     2
2017-05-26 21:40   2.3   3.3    92  56.5  53.4  89.3   29.22     2
2017-05-26 21:38   2.5   3.3    91  56.5  53.4  89.4   29.22     2
2017-05-26 21:36   1.7   2.9   103  56.5  53.5  89.7   29.22     2
2017-05-26 21:34   2.9   3.7   107  56.5  53.2  88.7   29.22     2
2017-05-26 21:32   2.7   3.5   117  56.5  52.9  87.6   29.22     2
2017-05-26 21:30   3.9   4.3   102  56.5  52.8  87.4   29.22     2
2017-05-26 21:28   4.1   4.9    94  56.5  52.6  86.8   29.22     2
2017-05-26 21:26   4.3   4.7    92  56.5  52.4  86.1   29.22     3
2017-05-26 21:24   4.5   5.1    89  56.5  52.3  85.8   29.22     3
2017-05-26 21:22   3.9   4.7    87  56.5  52.3  85.8   29.22     3
2017-05-26 21:20   3.7   4.1    89  56.7  52.5  85.9   29.22     3